Flight Track Log - Related Links

Times and Time Zones

All times are in EDT time to prevent confusion due to time zone crossing. See the EJA396 flight status page for this flight to view local times or setup timezone preferences in your user account.

Time Position Orientation Groundspeed Altitude Reporting Facility
EDT Latitude Longitude Course Direction KTS MPH feet Rate Location/Type
Tue 08:23:40 PM 33.8150 -118.3547 277° West 186 214 1,200  Level Los Angeles Center
Tue 08:24:42 PM 33.8228 -118.4306 277° West 213 245 3,600 1,839 Climbing Los Angeles Center
Tue 08:25:44 PM 33.8164 -118.4894 263° West 224 258 5,000 618 Climbing Los Angeles Center
Tue 08:26:58 PM 33.8056 -118.5769 262° West 221 254 5,000 1,314 Level Los Angeles Center
Tue 08:28:01 PM 33.7972 -118.6692 264° West 241 277 8,000 3,120 Climbing Los Angeles Center
Tue 08:29:03 PM 33.7864 -118.7625 262° West 283 326 11,500 3,581 Climbing Los Angeles Center
Tue 08:30:05 PM 33.8314 -118.8783 295° West 338 389 15,400 3,194 Climbing Los Angeles Center
Tue 08:31:07 PM 33.9000 -118.9675 313° West 358 412 18,100 2,516 Climbing Los Angeles Center
Tue 08:32:09 PM 33.9708 -119.0600 313° West 371 427 20,600 2,256 Climbing Los Angeles Center
Tue 08:33:12 PM 34.0428 -119.1556 312° West 384 442 22,800 1,776 Climbing Los Angeles Center
Tue 08:34:14 PM 34.1200 -119.2581 312° West 408 470 24,300 2,226 Climbing Los Angeles Center
Tue 08:35:16 PM 34.1972 -119.3589 313° West 410 472 27,400 2,613 Climbing Los Angeles Center
Tue 08:36:18 PM 34.2814 -119.4706 312° West 380 437 29,700 1,597 Climbing Los Angeles Center
Tue 08:37:20 PM 34.3533 -119.5672 312° West 384 442 30,700 968 Climbing Los Angeles Center
Tue 08:38:22 PM 34.4317 -119.6700 313° West 411 473 31,700 1,065 Climbing Los Angeles Center
Tue 08:39:24 PM 34.5131 -119.7783 312° West 431 496 32,900 1,161 Climbing Los Angeles Center
Tue 08:40:26 PM 34.6058 -119.8764 319° Northwest 442 509 34,100 1,258 Climbing Los Angeles Center
Tue 08:41:28 PM 34.6994 -119.9767 319° Northwest 448 516 35,500 919 Climbing Los Angeles Center
Tue 08:42:30 PM 34.8108 -120.0994 318° Northwest 450 518 36,000 242 Climbing Los Angeles Center
Tue 08:43:32 PM 34.8992 -120.1972 318° Northwest 457 526 36,000  Level Los Angeles Center
Tue 08:44:34 PM 34.9922 -120.2986 318° Northwest 458 527 36,000  Level Los Angeles Center
Tue 08:45:37 PM 35.0861 -120.4033 318° Northwest 459 528 36,000  Level Los Angeles Center
Tue 08:46:39 PM 35.1967 -120.5258 318° Northwest 458 527 36,000  Level Los Angeles Center
Tue 08:47:41 PM 35.2894 -120.6300 318° Northwest 458 527 36,000  Level Los Angeles Center
Tue 08:48:55 PM 35.3825 -120.7356 317° Northwest 456 525 36,000  Level Los Angeles Center
Tue 08:49:57 PM 35.4953 -120.8600 318° Northwest 455 524 36,000  Level Los Angeles Center
Tue 08:50:59 PM 35.5992 -120.9544 324° Northwest 464 534 36,000  Level Los Angeles Center
Tue 08:51:57 PM 35.6992 -121.0453 324° Northwest 461 531 36,000  Level Oakland Center
Tue 08:52:58 PM 35.8283 -121.1561 325° Northwest 466 536 36,000  Level Oakland Center
Tue 08:53:59 PM 35.9358 -121.2517 324° Northwest 471 542 36,000  Level Oakland Center
Tue 08:55:01 PM 36.0422 -121.3456 324° Northwest 469 540 36,000  Level Oakland Center
Tue 08:56:02 PM 36.1508 -121.4389 325° Northwest 470 541 36,000 -885 Level Oakland Center
Tue 08:57:03 PM 36.2522 -121.5325 323° Northwest 458 527 34,200 -2,262 Descending Oakland Center
Tue 08:58:04 PM 36.3564 -121.6200 326° Northwest 452 520 31,400 -2,829 Descending Oakland Center
Tue 08:59:06 PM 36.4564 -121.7097 324° Northwest 443 510 28,400 -3,024 Descending Oakland Center
Tue 09:00:07 PM 36.5589 -121.7989 325° Northwest 446 513 25,200 -3,462 Descending Oakland Center
Tue 09:00:50 PM 36.6500 -121.8667 329° Northwest 497 572 22,400 -2,854 Descending Northern Cal TRACON
Tue 09:01:50 PM 36.7333 -121.9500 321° Northwest 412 474 20,300 -2,300 Descending Northern Cal TRACON
Tue 09:02:50 PM 36.8333 -121.9833 345° North 392 451 17,800 -2,500 Descending Northern Cal TRACON
Tue 09:03:50 PM 36.9333 -122.0167 345° North 379 436 15,300 -2,350 Descending Northern Cal TRACON
Tue 09:04:50 PM 37.0333 -122.0500 345° North 370 426 13,100 -2,250 Descending Northern Cal TRACON
Tue 09:05:50 PM 37.1333 -122.0667 352° North 366 421 10,800 -2,188 Descending Northern Cal TRACON
Tue 09:06:15 PM 37.1722 -122.0750 350° North 361 415 10,000 -1,744 Descending Oakland Center
Tue 09:07:16 PM 37.2542 -122.0978 348° North 304 350 8,300 -1,805 Descending Oakland Center
Tue 09:08:18 PM 37.3314 -122.1169 349° North 284 327 6,300 -1,468 Descending Oakland Center
Tue 09:08:50 PM 37.3833 -122.1333 346° North 269 310 6,000 -393 Descending Northern Cal TRACON
Tue 09:09:19 PM 37.4047 -122.1369 352° North 274 315 5,900 -733 Descending Oakland Center
Tue 09:10:20 PM 37.4819 -122.1575 348° North 244 281 4,900 -984 Descending Oakland Center
Tue 09:11:21 PM 37.5314 -122.1850 336° Northwest 204 235 3,900 -927 Descending Oakland Center
Tue 09:12:23 PM 37.5594 -122.2428 302° West 203 234 3,000 -1,073 Descending Oakland Center
Tue 09:13:24 PM 37.5833 -122.2958 300° West 189 217 1,700 -1,131 Descending Oakland Center
Tue 09:14:25 PM 37.6017 -122.3381 299° West 160 184 700 -683 Descending Oakland Center
Tue 09:15:27 PM 37.6156 -122.3672 301° West 143 165 300 -387 Descending Oakland Center
Tue 09:17:00 PM 37.6167 -122.3667 322° Northwest  Level FlightAware Approximate

Login

Don't have an account? Register now (free) for customized features, flight alerts, and more!